createdAt,value
2018-08-17T00:01:28.931Z,100446.44
2018-08-17T00:03:53.518Z,100447.85
2018-08-17T00:06:17.453Z,100455.23
2018-08-17T00:08:41.384Z,100450.31
2018-08-17T00:11:05.403Z,100449.09
2018-08-17T00:13:29.747Z,100452.30
2018-08-17T00:15:53.611Z,100456.50
2018-08-17T00:18:17.569Z,100451.09
2018-08-17T00:20:41.495Z,100453.80
2018-08-17T00:23:05.586Z,100447.26
2018-08-17T00:25:29.521Z,100451.32
2018-08-17T00:27:53.438Z,100460.33
2018-08-17T00:30:17.333Z,100450.17
2018-08-17T00:32:41.223Z,100445.22
2018-08-17T00:35:05.119Z,100447.77
2018-08-17T00:37:29.027Z,100450.52
2018-08-17T00:39:52.980Z,100451.45
2018-08-17T00:42:16.851Z,100453.46
2018-08-17T00:44:40.764Z,100450.44
2018-08-17T00:47:04.631Z,100447.52
2018-08-17T00:49:28.538Z,100462.30
2018-08-17T00:51:52.387Z,100447.95
2018-08-17T00:54:16.296Z,100449.80
2018-08-17T00:56:40.142Z,100457.98
2018-08-17T00:59:04.059Z,100457.37
2018-08-17T01:01:27.939Z,100459.17
2018-08-17T01:03:51.889Z,100468.30
2018-08-17T01:06:15.751Z,100459.92
2018-08-17T01:08:39.649Z,100461.61
2018-08-17T01:11:03.537Z,100470.38
2018-08-17T01:13:27.454Z,100468.58
2018-08-17T01:15:51.310Z,100464.76
2018-08-17T01:18:15.218Z,100464.31
2018-08-17T01:20:39.120Z,100469.31
2018-08-17T01:23:03.023Z,100470.11
2018-08-17T01:25:26.944Z,100468.12
2018-08-17T01:27:50.788Z,100475.66
2018-08-17T01:30:14.663Z,100469.95
2018-08-17T01:32:38.847Z,100470.38
2018-08-17T01:35:02.762Z,100471.53
2018-08-17T01:37:26.605Z,100467.95
2018-08-17T01:39:50.697Z,100456.98
2018-08-17T01:42:14.566Z,100467.30
2018-08-17T01:44:38.454Z,100469.86
2018-08-17T01:47:02.404Z,100473.09
2018-08-17T01:49:26.256Z,100461.36
2018-08-17T01:51:50.164Z,100460.98
2018-08-17T01:54:14.084Z,100457.94
2018-08-17T01:56:44.266Z,100454.43
2018-08-17T01:59:08.243Z,100446.58
2018-08-17T02:01:38.780Z,100460.49
2018-08-17T02:04:02.651Z,100446.54
2018-08-17T02:06:26.523Z,100454.98
2018-08-17T02:08:50.433Z,100454.05
2018-08-17T02:11:14.318Z,100446.09
2018-08-17T02:13:38.178Z,100453.95
2018-08-17T02:16:02.043Z,100453.78
2018-08-17T02:18:25.911Z,100450.73
2018-08-17T02:20:49.831Z,100447.13
2018-08-17T02:23:13.704Z,100448.17
2018-08-17T02:25:37.586Z,100444.35
2018-08-17T02:28:01.437Z,100449.19
2018-08-17T02:30:25.342Z,100419.02
2018-08-17T02:32:49.206Z,100445.33
2018-08-17T02:35:13.050Z,100447.91
2018-08-17T02:37:36.950Z,100450.72
2018-08-17T02:40:00.840Z,100452.52
2018-08-17T02:42:24.759Z,100450.63
2018-08-17T02:44:48.676Z,100456.65
2018-08-17T02:47:12.582Z,100457.66
2018-08-17T02:49:36.425Z,100462.55
2018-08-17T02:52:00.345Z,100456.73
2018-08-17T02:54:24.292Z,100454.69
2018-08-17T02:56:48.123Z,100455.06
2018-08-17T02:59:12.047Z,100457.11
2018-08-17T03:01:35.918Z,100464.20
2018-08-17T03:04:00.165Z,100462.66
2018-08-17T03:06:24.368Z,100465.11
2018-08-17T03:08:48.287Z,100471.30
2018-08-17T03:11:12.167Z,100467.03
2018-08-17T03:13:36.090Z,100470.38
2018-08-17T03:15:59.950Z,100471.94
2018-08-17T03:18:23.921Z,100457.92
2018-08-17T03:20:47.844Z,100460.77
2018-08-17T03:23:11.775Z,100466.53
2018-08-17T03:25:35.752Z,100464.20
2018-08-17T03:27:59.658Z,100467.55
2018-08-17T03:30:23.556Z,100464.09
2018-08-17T03:32:47.443Z,100472.86
2018-08-17T03:35:11.347Z,100466.28
2018-08-17T03:37:35.203Z,100467.56
2018-08-17T03:39:59.102Z,100462.55
2018-08-17T03:42:23.168Z,100474.37
2018-08-17T03:44:47.042Z,100476.42
2018-08-17T03:47:10.896Z,100482.20
2018-08-17T03:49:34.834Z,100489.16
2018-08-17T03:51:58.749Z,100475.65
2018-08-17T03:54:22.578Z,100484.91
2018-08-17T03:56:46.510Z,100485.80
2018-08-17T03:59:10.481Z,100479.50
2018-08-17T04:01:34.368Z,100482.58
2018-08-17T04:03:58.291Z,100490.95
2018-08-17T04:06:22.184Z,100493.01
2018-08-17T04:08:46.041Z,100494.91
2018-08-17T04:11:09.998Z,100492.73
2018-08-17T04:13:33.876Z,100496.86
2018-08-17T04:15:57.728Z,100498.53
2018-08-17T04:18:21.650Z,100504.95
2018-08-17T04:20:45.498Z,100499.05
2018-08-17T04:23:09.414Z,100504.82
2018-08-17T04:25:33.541Z,100512.58
2018-08-17T04:27:57.462Z,100517.67
2018-08-17T04:30:21.325Z,100521.15
2018-08-17T04:32:45.212Z,100520.23
2018-08-17T04:35:09.096Z,100524.23
2018-08-17T04:37:33.024Z,100519.62
2018-08-17T04:39:56.951Z,100512.80
2018-08-17T04:42:20.859Z,100521.67
2018-08-17T04:44:44.728Z,100519.76
2018-08-17T04:47:08.879Z,100522.95
2018-08-17T04:49:32.782Z,100525.42
2018-08-17T04:51:56.706Z,100517.33
2018-08-17T04:54:20.791Z,100525.01
2018-08-17T04:56:44.657Z,100526.03
2018-08-17T04:59:08.538Z,100536.80
2018-08-17T05:01:32.564Z,100539.28
2018-08-17T05:03:56.433Z,100530.11
2018-08-17T05:06:20.283Z,100528.44
2018-08-17T05:08:44.312Z,100527.50
2018-08-17T05:11:08.170Z,100532.95
2018-08-17T05:13:32.042Z,100530.10
2018-08-17T05:15:55.964Z,100527.48
2018-08-17T05:18:19.835Z,100531.59
2018-08-17T05:20:43.730Z,100542.84
2018-08-17T05:23:07.684Z,100543.75
2018-08-17T05:25:31.567Z,100546.00
2018-08-17T05:27:55.452Z,100546.66
2018-08-17T05:30:19.417Z,100549.66
2018-08-17T05:32:43.283Z,100546.03
2018-08-17T05:35:07.316Z,100542.76
2018-08-17T05:37:31.318Z,100543.24
2018-08-17T05:39:55.380Z,100553.03
2018-08-17T05:42:19.282Z,100548.41
2018-08-17T05:44:43.236Z,100552.16
2018-08-17T05:47:07.164Z,100557.11
2018-08-17T05:49:31.074Z,100547.60
2018-08-17T05:51:54.976Z,100542.48
2018-08-17T05:54:18.875Z,100540.02
2018-08-17T05:56:42.835Z,100540.92
2018-08-17T05:59:06.680Z,100540.45
2018-08-17T06:01:30.570Z,100540.67
2018-08-17T06:03:54.417Z,100543.12
2018-08-17T06:06:18.343Z,100549.66
2018-08-17T06:08:42.247Z,100558.17
2018-08-17T06:11:06.227Z,100558.97
2018-08-17T06:13:29.991Z,100557.02
2018-08-17T06:15:53.858Z,100559.58
2018-08-17T06:18:17.736Z,100559.08
2018-08-17T06:20:41.607Z,100565.97
2018-08-17T06:23:05.509Z,100572.66
2018-08-17T06:25:29.390Z,100575.67
2018-08-17T06:27:53.309Z,100576.53
2018-08-17T06:30:17.174Z,100575.91
2018-08-17T06:32:41.217Z,100581.52
2018-08-17T06:35:05.894Z,100579.64
2018-08-17T06:37:29.756Z,100583.89
2018-08-17T06:39:53.630Z,100580.00
2018-08-17T06:42:17.525Z,100582.81
2018-08-17T06:44:41.629Z,100583.27
2018-08-17T06:47:05.623Z,100588.77
2018-08-17T06:49:29.563Z,100593.12
2018-08-17T06:51:53.457Z,100591.61
2018-08-17T06:54:17.327Z,100596.70
2018-08-17T06:56:41.245Z,100603.17
2018-08-17T06:59:05.580Z,100600.08
2018-08-17T07:01:29.467Z,100609.05
2018-08-17T07:03:53.431Z,100610.11
2018-08-17T07:06:17.335Z,100609.58
2018-08-17T07:08:41.217Z,100609.47
2018-08-17T07:11:05.169Z,100619.09
2018-08-17T07:13:29.027Z,100624.12
2018-08-17T07:15:52.902Z,100629.23
2018-08-17T07:18:16.812Z,100634.20
2018-08-17T07:20:40.657Z,100634.27
2018-08-17T07:23:04.525Z,100631.47
2018-08-17T07:25:28.447Z,100635.05
2018-08-17T07:27:52.424Z,100644.18
2018-08-17T07:30:16.152Z,100647.34
2018-08-17T07:32:40.352Z,100649.84
2018-08-17T07:35:05.014Z,100646.85
2018-08-17T07:37:28.867Z,100649.05
2018-08-17T07:39:52.941Z,100649.45
2018-08-17T07:42:16.861Z,100655.34
2018-08-17T07:44:40.972Z,100658.48
2018-08-17T07:47:04.911Z,100661.59
2018-08-17T07:49:28.769Z,100659.91
2018-08-17T07:51:52.624Z,100660.72
2018-08-17T07:54:16.535Z,100661.78
2018-08-17T07:56:40.404Z,100663.89
2018-08-17T07:59:04.337Z,100664.91
2018-08-17T08:01:28.254Z,100662.48
2018-08-17T08:03:52.255Z,100662.11
2018-08-17T08:06:16.142Z,100668.98
2018-08-17T08:08:40.040Z,100657.75
2018-08-17T08:11:04.150Z,100672.88
2018-08-17T08:13:27.984Z,100672.62
2018-08-17T08:15:51.913Z,100668.98
2018-08-17T08:18:16.020Z,100665.17
2018-08-17T08:20:42.161Z,100662.45
2018-08-17T08:23:17.283Z,100668.99
2018-08-17T08:25:41.447Z,100668.17
2018-08-17T08:28:05.329Z,100670.87
2018-08-17T08:30:29.248Z,100666.70
2018-08-17T08:32:53.092Z,100670.45
2018-08-17T08:35:17.010Z,100672.95
2018-08-17T08:37:40.926Z,100673.76
2018-08-17T08:40:05.457Z,100664.94
2018-08-17T08:42:29.352Z,100683.00
2018-08-17T08:44:53.538Z,100689.83
2018-08-17T08:47:17.412Z,100694.00
2018-08-17T08:49:41.278Z,100697.03
2018-08-17T08:52:05.312Z,100690.52
2018-08-17T08:54:29.150Z,100702.59
2018-08-17T08:56:53.002Z,100708.59
2018-08-17T08:59:16.903Z,100705.60
2018-08-17T09:01:40.855Z,100711.18
2018-08-17T09:04:04.800Z,100704.25
2018-08-17T09:06:28.875Z,100702.59
2018-08-17T09:08:52.728Z,100704.38
2018-08-17T09:11:16.595Z,100699.64
2018-08-17T09:13:40.547Z,100708.03
2018-08-17T09:16:04.430Z,100708.48
2018-08-17T09:18:28.279Z,100713.72
2018-08-17T09:20:52.180Z,100715.39
2018-08-17T09:23:16.067Z,100702.68
2018-08-17T09:25:39.926Z,100707.34
2018-08-17T09:28:03.836Z,100711.16
2018-08-17T09:30:27.706Z,100707.28
2018-08-17T09:32:51.542Z,100711.22
2018-08-17T09:35:15.450Z,100707.34
2018-08-17T09:37:39.526Z,100706.91
2018-08-17T09:40:03.446Z,100709.81
2018-08-17T09:42:27.363Z,100703.22
2018-08-17T09:44:51.285Z,100707.96
2018-08-17T09:47:15.183Z,100710.30
2018-08-17T09:49:39.040Z,100698.36
2018-08-17T09:52:02.896Z,100705.52
2018-08-17T09:54:26.759Z,100696.28
2018-08-17T09:56:50.620Z,100688.27
2018-08-17T09:59:14.527Z,100699.04
2018-08-17T10:01:43.749Z,100700.27
2018-08-17T10:04:13.007Z,100707.00
2018-08-17T10:06:42.211Z,100704.63
2018-08-17T10:09:11.744Z,100711.50
2018-08-17T10:11:35.630Z,100700.77
2018-08-17T10:13:59.471Z,100705.45
2018-08-17T10:16:23.332Z,100698.70
2018-08-17T10:18:47.223Z,100695.88
2018-08-17T10:21:11.315Z,100706.12
2018-08-17T10:23:35.120Z,100704.19
2018-08-17T10:25:59.011Z,100707.50
2018-08-17T10:28:22.848Z,100713.23
2018-08-17T10:30:46.712Z,100711.56
2018-08-17T10:33:11.241Z,100706.49
2018-08-17T10:35:36.383Z,100710.21
2018-08-17T10:38:01.551Z,100707.28
2018-08-17T10:40:25.849Z,100703.73
2018-08-17T10:42:49.771Z,100706.61
2018-08-17T10:45:13.677Z,100692.65
2018-08-17T10:47:37.606Z,100690.89
2018-08-17T10:50:05.156Z,100687.69
2018-08-17T10:52:29.036Z,100684.14
2018-08-17T10:54:52.993Z,100681.28
2018-08-17T10:57:16.860Z,100682.57
2018-08-17T10:59:40.745Z,100681.42
2018-08-17T11:02:04.658Z,100663.67
2018-08-17T11:04:28.661Z,100667.66
2018-08-17T11:06:52.511Z,100660.46
2018-08-17T11:09:16.444Z,100661.08
2018-08-17T11:11:42.689Z,100658.84
2018-08-17T11:14:06.563Z,100655.78
2018-08-17T11:16:30.433Z,100656.56
2018-08-17T11:18:54.328Z,100646.89
2018-08-17T11:21:18.242Z,100651.26
2018-08-17T11:23:42.144Z,100623.28
2018-08-17T11:26:06.026Z,100650.22
2018-08-17T11:28:29.901Z,100654.66
2018-08-17T11:30:53.881Z,100651.34
2018-08-17T11:33:22.870Z,100651.44
2018-08-17T11:35:46.713Z,100644.20
2018-08-17T11:38:15.147Z,100654.00
2018-08-17T11:40:39.171Z,100653.45
2018-08-17T11:43:03.037Z,100648.11
2018-08-17T11:45:27.762Z,100652.59
2018-08-17T11:47:52.222Z,100652.59
2018-08-17T11:50:17.751Z,100652.60
2018-08-17T11:53:00.845Z,100651.16
2018-08-17T11:55:25.797Z,100643.92
2018-08-17T11:57:49.812Z,100644.34
2018-08-17T12:00:13.726Z,100645.42
2018-08-17T12:02:37.612Z,100644.80
2018-08-17T12:05:01.568Z,100645.11
2018-08-17T12:07:25.481Z,100649.91
2018-08-17T12:09:54.713Z,100645.71
2018-08-17T12:12:18.691Z,100652.99
2018-08-17T12:14:42.795Z,100647.52
2018-08-17T12:17:06.743Z,100656.59
2018-08-17T12:19:30.696Z,100648.56
2018-08-17T12:21:54.629Z,100659.36
2018-08-17T12:24:18.591Z,100659.27
2018-08-17T12:26:47.637Z,100664.55
2018-08-17T12:29:11.515Z,100670.72
2018-08-17T12:31:35.402Z,100669.17
2018-08-17T12:33:59.311Z,100668.25
2018-08-17T12:36:23.227Z,100667.56
2018-08-17T12:38:47.088Z,100667.57
2018-08-17T12:41:10.967Z,100668.44
2018-08-17T12:43:37.786Z,100674.30
2018-08-17T12:46:01.742Z,100672.35
2018-08-17T12:48:25.666Z,100671.09
2018-08-17T12:50:49.542Z,100670.64
2018-08-17T12:53:13.547Z,100667.70
2018-08-17T12:55:37.443Z,100669.22
2018-08-17T12:58:01.312Z,100673.02
2018-08-17T13:00:25.201Z,100670.34
2018-08-17T13:02:49.139Z,100673.54
2018-08-17T13:05:13.009Z,100670.48
2018-08-17T13:07:37.126Z,100667.98
2018-08-17T13:10:01.092Z,100675.20
2018-08-17T13:12:24.976Z,100664.41
2018-08-17T13:14:49.391Z,100672.43
2018-08-17T13:17:13.299Z,100676.91
2018-08-17T13:19:37.109Z,100679.62
2018-08-17T13:22:01.017Z,100682.71
2018-08-17T13:24:24.918Z,100685.31
2018-08-17T13:26:48.835Z,100691.37
2018-08-17T13:29:12.717Z,100688.47
2018-08-17T13:31:36.640Z,100697.86
2018-08-17T13:34:00.819Z,100702.92
2018-08-17T13:36:24.714Z,100703.94
2018-08-17T13:38:48.640Z,100711.13
2018-08-17T13:41:12.579Z,100701.92
2018-08-17T13:43:36.607Z,100708.91
2018-08-17T13:46:00.543Z,100715.28
2018-08-17T13:48:24.377Z,100718.59
2018-08-17T13:50:48.250Z,100735.61
2018-08-17T13:53:12.118Z,100726.52
2018-08-17T13:55:36.021Z,100725.55
2018-08-17T13:57:59.863Z,100738.31
2018-08-17T14:00:30.466Z,100730.08
2018-08-17T14:02:54.401Z,100740.00
2018-08-17T14:05:18.394Z,100739.23
2018-08-17T14:07:42.733Z,100733.03
2018-08-17T14:10:07.800Z,100733.81
2018-08-17T14:12:31.621Z,100732.91
2018-08-17T14:14:55.516Z,100729.47
2018-08-17T14:17:20.257Z,100727.75
2018-08-17T14:19:44.184Z,100742.92
2018-08-17T14:22:08.104Z,100740.66
2018-08-17T14:24:31.996Z,100754.34
2018-08-17T14:26:55.877Z,100758.30
2018-08-17T14:29:19.946Z,100762.45
2018-08-17T14:31:43.890Z,100760.57
2018-08-17T14:34:07.743Z,100758.47
2018-08-17T14:36:31.635Z,100765.80
2018-08-17T14:38:55.575Z,100765.91
2018-08-17T14:41:19.511Z,100777.69
2018-08-17T14:43:43.424Z,100768.34
2018-08-17T14:46:07.412Z,100770.41
2018-08-17T14:48:31.888Z,100773.95
2018-08-17T14:50:55.875Z,100764.81
2018-08-17T14:53:19.774Z,100761.41
2018-08-17T14:55:43.700Z,100765.41
2018-08-17T14:58:07.654Z,100760.89
2018-08-17T15:00:31.573Z,100761.51
2018-08-17T15:02:55.452Z,100763.45
2018-08-17T15:05:19.581Z,100766.72
2018-08-17T15:07:43.569Z,100761.41
2018-08-17T15:10:08.459Z,100764.31
2018-08-17T15:12:32.354Z,100763.06
2018-08-17T15:14:56.264Z,100763.98
2018-08-17T15:17:20.206Z,100761.76
2018-08-17T15:19:44.078Z,100764.57
2018-08-17T15:22:07.948Z,100763.19
2018-08-17T15:24:31.909Z,100765.17
2018-08-17T15:26:55.791Z,100767.73
2018-08-17T15:29:19.691Z,100768.17
2018-08-17T15:31:43.621Z,100767.06
2018-08-17T15:34:07.554Z,100757.20
2018-08-17T15:36:31.444Z,100756.95
2018-08-17T15:38:55.545Z,100761.22
2018-08-17T15:41:19.446Z,100758.48
2018-08-17T15:43:43.417Z,100757.23
2018-08-17T15:46:07.392Z,100765.53
2018-08-17T15:48:39.063Z,100765.50
2018-08-17T15:51:03.002Z,100768.02
2018-08-17T15:53:26.846Z,100768.08
2018-08-17T15:55:50.770Z,100773.09
2018-08-17T15:58:14.669Z,100768.39
2018-08-17T16:00:38.634Z,100759.65
2018-08-17T16:03:02.478Z,100766.64
2018-08-17T16:05:26.419Z,100769.83
2018-08-17T16:07:50.366Z,100771.95
2018-08-17T16:10:15.279Z,100777.91
2018-08-17T16:12:39.370Z,100775.52
2018-08-17T16:15:03.388Z,100783.63
2018-08-17T16:17:27.279Z,100779.77
2018-08-17T16:19:51.238Z,100776.84
2018-08-17T16:22:15.166Z,100780.74
2018-08-17T16:24:39.142Z,100785.23
2018-08-17T16:27:03.023Z,100792.66
2018-08-17T16:29:27.148Z,100793.29
2018-08-17T16:31:51.180Z,100787.53
2018-08-17T16:34:15.072Z,100786.95
2018-08-17T16:36:41.096Z,100801.80
2018-08-17T16:39:08.619Z,100800.95
2018-08-17T16:41:32.558Z,100802.02
2018-08-17T16:43:56.475Z,100800.44
2018-08-17T16:46:20.436Z,100798.58
2018-08-17T16:48:44.379Z,100801.69
2018-08-17T16:51:08.258Z,100797.64
2018-08-17T16:53:32.700Z,100801.11
2018-08-17T16:55:56.617Z,100801.31
2018-08-17T16:58:20.531Z,100808.42
2018-08-17T17:00:44.484Z,100805.36
2018-08-17T17:03:08.331Z,100797.03
2018-08-17T17:05:32.246Z,100797.47
2018-08-17T17:07:56.166Z,100801.36
2018-08-17T17:10:20.143Z,100799.21
2018-08-17T17:12:44.164Z,100797.09
2018-08-17T17:15:15.184Z,100807.14
2018-08-17T17:17:39.093Z,100806.91
2018-08-17T17:20:02.933Z,100799.73
2018-08-17T17:22:26.857Z,100801.74
2018-08-17T17:24:50.768Z,100771.66
2018-08-17T17:27:17.279Z,100806.30
2018-08-17T17:29:41.184Z,100806.82
2018-08-17T17:32:05.763Z,100801.64
2018-08-17T17:34:29.868Z,100804.11
2018-08-17T17:36:53.807Z,100803.72
2018-08-17T17:39:17.700Z,100803.69
2018-08-17T17:41:48.257Z,100799.97
2018-08-17T17:44:12.197Z,100807.17
2018-08-17T17:46:36.140Z,100808.03
2018-08-17T17:49:00.067Z,100811.67
2018-08-17T17:51:23.910Z,100806.55
2018-08-17T17:53:47.776Z,100820.84
2018-08-17T17:56:11.705Z,100815.77
2018-08-17T17:58:35.600Z,100818.30
2018-08-17T18:01:04.833Z,100823.56
2018-08-17T18:03:31.703Z,100821.22
2018-08-17T18:05:57.019Z,100824.20
2018-08-17T18:08:20.983Z,100827.02
2018-08-17T18:10:44.893Z,100833.72
2018-08-17T18:13:08.841Z,100826.55
2018-08-17T18:15:32.713Z,100830.16
2018-08-17T18:17:56.687Z,100834.59
2018-08-17T18:20:20.639Z,100836.38
2018-08-17T18:22:44.595Z,100839.45
2018-08-17T18:25:12.675Z,100838.07
2018-08-17T18:27:36.679Z,100838.62
2018-08-17T18:30:00.819Z,100845.97
2018-08-17T18:32:24.703Z,100843.39
2018-08-17T18:34:48.641Z,100844.20
2018-08-17T18:37:12.587Z,100849.78
2018-08-17T18:39:36.500Z,100859.34
2018-08-17T18:42:00.393Z,100857.90
2018-08-17T18:44:24.293Z,100867.63
2018-08-17T18:46:48.233Z,100858.98
2018-08-17T18:49:12.253Z,100870.86
2018-08-17T18:51:36.271Z,100868.42
2018-08-17T18:54:01.020Z,100881.56
2018-08-17T18:56:24.952Z,100884.45
2018-08-17T18:58:48.845Z,100886.33
2018-08-17T19:01:12.728Z,100889.05
2018-08-17T19:03:36.712Z,100886.59
2018-08-17T19:06:00.627Z,100900.28
2018-08-17T19:08:24.512Z,100905.20
2018-08-17T19:10:48.470Z,100904.95
2018-08-17T19:13:12.444Z,100901.04
2018-08-17T19:15:41.535Z,100906.03
2018-08-17T19:18:05.421Z,100914.48
2018-08-17T19:20:29.335Z,100919.86
2018-08-17T19:22:53.265Z,100920.80
2018-08-17T19:25:17.233Z,100930.53
2018-08-17T19:27:41.731Z,100930.50
2018-08-17T19:30:12.364Z,100929.01
2018-08-17T19:32:36.329Z,100932.72
2018-08-17T19:35:00.244Z,100937.47
2018-08-17T19:37:24.212Z,100943.30
2018-08-17T19:39:48.319Z,100942.03
2018-08-17T19:42:12.475Z,100940.96
2018-08-17T19:44:36.473Z,100945.14
2018-08-17T19:47:00.418Z,100950.22
2018-08-17T19:49:25.301Z,100952.37
2018-08-17T19:51:49.197Z,100942.51
2018-08-17T19:54:13.108Z,100955.42
2018-08-17T19:56:39.059Z,100955.37
2018-08-17T19:59:03.070Z,100954.63
2018-08-17T20:01:26.991Z,100960.94
2018-08-17T20:03:50.894Z,100934.63
2018-08-17T20:06:14.832Z,100972.94
2018-08-17T20:08:38.758Z,100977.96
2018-08-17T20:11:02.645Z,100971.61
2018-08-17T20:13:26.593Z,100977.28
2018-08-17T20:15:50.533Z,100978.62
2018-08-17T20:18:14.397Z,100988.91
2018-08-17T20:20:38.428Z,100935.44
2018-08-17T20:23:02.846Z,100987.25
2018-08-17T20:25:26.740Z,100987.91
2018-08-17T20:27:51.020Z,100983.25
2018-08-17T20:30:20.547Z,100986.34
2018-08-17T20:32:44.640Z,100987.64
2018-08-17T20:35:08.619Z,100984.03
2018-08-17T20:37:32.536Z,100987.13
2018-08-17T20:39:56.445Z,100983.77
2018-08-17T20:42:20.925Z,100985.45
2018-08-17T20:44:44.837Z,100987.84
2018-08-17T20:47:09.432Z,100991.79
2018-08-17T20:49:33.365Z,100983.55
2018-08-17T20:52:01.323Z,100981.91
2018-08-17T20:54:25.204Z,100984.09
2018-08-17T20:56:49.312Z,100987.13
2018-08-17T20:59:13.156Z,100980.58
2018-08-17T21:01:37.025Z,100980.06
2018-08-17T21:04:00.978Z,100989.25
2018-08-17T21:06:24.843Z,100992.15
2018-08-17T21:08:48.833Z,100990.55
2018-08-17T21:11:13.048Z,100999.23
2018-08-17T21:13:36.973Z,100996.02
2018-08-17T21:16:00.927Z,101001.14
2018-08-17T21:18:24.867Z,101002.35
2018-08-17T21:20:48.793Z,101009.16
2018-08-17T21:23:12.652Z,101004.21
2018-08-17T21:25:36.598Z,101007.66
2018-08-17T21:28:00.505Z,101004.07
2018-08-17T21:30:24.364Z,101011.28
2018-08-17T21:32:48.296Z,101013.02
2018-08-17T21:35:12.190Z,101018.25
2018-08-17T21:37:36.161Z,101021.89
2018-08-17T21:40:00.040Z,101021.56
2018-08-17T21:42:23.930Z,101024.47
2018-08-17T21:44:47.886Z,101025.06
2018-08-17T21:47:12.411Z,101027.23
2018-08-17T21:49:36.850Z,101030.32
2018-08-17T21:52:05.466Z,101036.27
2018-08-17T21:54:31.507Z,101039.80
2018-08-17T21:56:55.417Z,101039.45
2018-08-17T21:59:19.436Z,101035.91
2018-08-17T22:01:43.497Z,101036.77
2018-08-17T22:04:07.407Z,101035.81
2018-08-17T22:06:31.271Z,101038.38
2018-08-17T22:08:55.181Z,101032.88
2018-08-17T22:11:31.120Z,101040.73
2018-08-17T22:13:55.013Z,101043.00
2018-08-17T22:16:18.951Z,101042.56
2018-08-17T22:18:42.886Z,101049.87
2018-08-17T22:21:06.761Z,101050.27
2018-08-17T22:23:31.406Z,101051.73
2018-08-17T22:25:55.333Z,101056.09
2018-08-17T22:28:19.206Z,101060.27
2018-08-17T22:30:43.138Z,101060.97
2018-08-17T22:33:07.076Z,101068.09
2018-08-17T22:35:31.062Z,101060.07
2018-08-17T22:37:54.843Z,101064.73
2018-08-17T22:40:18.732Z,101058.28
2018-08-17T22:42:42.696Z,101061.96
2018-08-17T22:45:07.038Z,101064.80
2018-08-17T22:47:30.962Z,101067.73
2018-08-17T22:49:56.799Z,101058.00
2018-08-17T22:52:20.828Z,101061.13
2018-08-17T22:54:49.844Z,101068.70
2018-08-17T22:57:13.751Z,101079.58
2018-08-17T22:59:37.696Z,101078.34
2018-08-17T23:02:01.612Z,101081.78
2018-08-17T23:04:25.491Z,101072.06
2018-08-17T23:06:49.428Z,101071.91
2018-08-17T23:09:13.287Z,101073.56
2018-08-17T23:11:37.885Z,101075.20
2018-08-17T23:14:08.786Z,101074.63
2018-08-17T23:16:32.646Z,101081.05
2018-08-17T23:18:56.540Z,101074.83
2018-08-17T23:21:20.920Z,101072.00
2018-08-17T23:23:44.828Z,101076.24
2018-08-17T23:26:08.666Z,101072.70
2018-08-17T23:28:32.569Z,101071.09
2018-08-17T23:30:56.439Z,101079.52
2018-08-17T23:33:20.280Z,101071.33
2018-08-17T23:35:44.170Z,101075.41
2018-08-17T23:38:08.071Z,101076.63
2018-08-17T23:40:31.959Z,101084.00
2018-08-17T23:42:55.876Z,101080.50
2018-08-17T23:45:19.822Z,101081.25
2018-08-17T23:47:43.734Z,101089.24
2018-08-17T23:50:09.007Z,101092.47
2018-08-17T23:52:32.852Z,101097.98
2018-08-17T23:54:56.687Z,101095.31
2018-08-17T23:57:20.622Z,101096.25
2018-08-17T23:59:44.497Z,101091.90
